sensor_id;sensor_type;location;lat;lon;timestamp;P1;durP1;ratioP1;P2;durP2;ratioP2
70313;SDS011;71040;47.526;18.986;2024-02-23T00:02:38;1.53;;;0.80;;
70313;SDS011;71040;47.526;18.986;2024-02-23T00:07:39;1.93;;;1.03;;
70313;SDS011;71040;47.526;18.986;2024-02-23T00:12:42;1.17;;;0.60;;
70313;SDS011;71040;47.526;18.986;2024-02-23T00:17:43;1.20;;;0.68;;
70313;SDS011;71040;47.526;18.986;2024-02-23T00:22:48;1.60;;;0.90;;
70313;SDS011;71040;47.526;18.986;2024-02-23T00:27:51;1.50;;;0.80;;
70313;SDS011;71040;47.526;18.986;2024-02-23T00:32:54;1.23;;;0.82;;
70313;SDS011;71040;47.526;18.986;2024-02-23T00:37:59;1.85;;;0.90;;
70313;SDS011;71040;47.526;18.986;2024-02-23T00:42:59;1.52;;;0.73;;
70313;SDS011;71040;47.526;18.986;2024-02-23T00:48:03;1.20;;;0.70;;
70313;SDS011;71040;47.526;18.986;2024-02-23T00:53:06;1.67;;;0.90;;
70313;SDS011;71040;47.526;18.986;2024-02-23T00:58:07;1.43;;;0.83;;
70313;SDS011;71040;47.526;18.986;2024-02-23T01:03:07;1.27;;;0.90;;
70313;SDS011;71040;47.526;18.986;2024-02-23T01:08:09;1.20;;;0.70;;
70313;SDS011;71040;47.526;18.986;2024-02-23T01:13:10;1.37;;;0.80;;
70313;SDS011;71040;47.526;18.986;2024-02-23T01:18:13;2.25;;;0.80;;
70313;SDS011;71040;47.526;18.986;2024-02-23T01:23:13;1.10;;;0.80;;
70313;SDS011;71040;47.526;18.986;2024-02-23T01:28:13;1.50;;;1.00;;
70313;SDS011;71040;47.526;18.986;2024-02-23T01:33:19;2.15;;;1.02;;
70313;SDS011;71040;47.526;18.986;2024-02-23T01:38:19;1.80;;;0.80;;
70313;SDS011;71040;47.526;18.986;2024-02-23T01:43:20;1.38;;;0.80;;
70313;SDS011;71040;47.526;18.986;2024-02-23T01:48:21;1.43;;;1.23;;
70313;SDS011;71040;47.526;18.986;2024-02-23T01:53:21;1.13;;;0.57;;
70313;SDS011;71040;47.526;18.986;2024-02-23T01:58:29;1.63;;;0.90;;
70313;SDS011;71040;47.526;18.986;2024-02-23T02:03:30;1.30;;;0.70;;
70313;SDS011;71040;47.526;18.986;2024-02-23T02:08:35;1.63;;;0.80;;
70313;SDS011;71040;47.526;18.986;2024-02-23T02:13:38;1.52;;;0.70;;
70313;SDS011;71040;47.526;18.986;2024-02-23T02:18:38;1.20;;;0.80;;
70313;SDS011;71040;47.526;18.986;2024-02-23T02:23:39;1.37;;;0.80;;
70313;SDS011;71040;47.526;18.986;2024-02-23T02:28:46;1.77;;;0.90;;
70313;SDS011;71040;47.526;18.986;2024-02-23T02:33:47;1.55;;;0.80;;
70313;SDS011;71040;47.526;18.986;2024-02-23T02:38:47;1.20;;;0.80;;
70313;SDS011;71040;47.526;18.986;2024-02-23T02:43:50;1.58;;;1.10;;
70313;SDS011;71040;47.526;18.986;2024-02-23T02:48:51;1.20;;;0.70;;
70313;SDS011;71040;47.526;18.986;2024-02-23T02:53:54;1.57;;;0.73;;
70313;SDS011;71040;47.526;18.986;2024-02-23T02:58:57;1.40;;;0.98;;
70313;SDS011;71040;47.526;18.986;2024-02-23T03:03:57;1.93;;;0.97;;
70313;SDS011;71040;47.526;18.986;2024-02-23T03:08:57;1.53;;;0.63;;
70313;SDS011;71040;47.526;18.986;2024-02-23T03:13:58;1.67;;;0.87;;
70313;SDS011;71040;47.526;18.986;2024-02-23T03:19:03;1.75;;;0.70;;
70313;SDS011;71040;47.526;18.986;2024-02-23T03:24:03;1.67;;;0.80;;
70313;SDS011;71040;47.526;18.986;2024-02-23T03:29:04;1.75;;;0.90;;
70313;SDS011;71040;47.526;18.986;2024-02-23T03:34:09;1.48;;;0.90;;
70313;SDS011;71040;47.526;18.986;2024-02-23T03:39:12;1.20;;;0.80;;
70313;SDS011;71040;47.526;18.986;2024-02-23T03:44:19;1.20;;;0.80;;
70313;SDS011;71040;47.526;18.986;2024-02-23T03:49:21;1.75;;;1.10;;
70313;SDS011;71040;47.526;18.986;2024-02-23T03:54:24;1.10;;;0.70;;
70313;SDS011;71040;47.526;18.986;2024-02-23T03:59:24;2.63;;;1.10;;
70313;SDS011;71040;47.526;18.986;2024-02-23T04:04:25;1.33;;;0.83;;
70313;SDS011;71040;47.526;18.986;2024-02-23T04:09:25;2.30;;;1.00;;
70313;SDS011;71040;47.526;18.986;2024-02-23T04:14:26;1.50;;;0.70;;
70313;SDS011;71040;47.526;18.986;2024-02-23T04:19:28;1.45;;;0.88;;
70313;SDS011;71040;47.526;18.986;2024-02-23T04:24:29;2.00;;;0.90;;
70313;SDS011;71040;47.526;18.986;2024-02-23T04:29:31;2.58;;;0.90;;
70313;SDS011;71040;47.526;18.986;2024-02-23T04:34:32;1.30;;;0.70;;
70313;SDS011;71040;47.526;18.986;2024-02-23T04:39:35;1.13;;;0.70;;
70313;SDS011;71040;47.526;18.986;2024-02-23T04:44:49;2.28;;;0.95;;
70313;SDS011;71040;47.526;18.986;2024-02-23T04:49:52;1.20;;;0.80;;
70313;SDS011;71040;47.526;18.986;2024-02-23T04:54:54;1.83;;;0.90;;
70313;SDS011;71040;47.526;18.986;2024-02-23T04:59:57;1.55;;;0.90;;
70313;SDS011;71040;47.526;18.986;2024-02-23T05:05:00;1.35;;;0.93;;
70313;SDS011;71040;47.526;18.986;2024-02-23T05:10:00;1.15;;;0.80;;
70313;SDS011;71040;47.526;18.986;2024-02-23T05:15:07;1.00;;;0.70;;
70313;SDS011;71040;47.526;18.986;2024-02-23T05:20:08;1.25;;;0.70;;
70313;SDS011;71040;47.526;18.986;2024-02-23T05:25:10;1.52;;;0.73;;
70313;SDS011;71040;47.526;18.986;2024-02-23T05:30:13;1.45;;;1.00;;
70313;SDS011;71040;47.526;18.986;2024-02-23T05:35:16;2.30;;;0.90;;
70313;SDS011;71040;47.526;18.986;2024-02-23T05:40:20;1.40;;;0.90;;
70313;SDS011;71040;47.526;18.986;2024-02-23T05:45:23;1.45;;;0.60;;
70313;SDS011;71040;47.526;18.986;2024-02-23T05:50:23;1.55;;;0.80;;
70313;SDS011;71040;47.526;18.986;2024-02-23T05:55:26;1.55;;;0.70;;
70313;SDS011;71040;47.526;18.986;2024-02-23T06:00:26;0.93;;;0.57;;
70313;SDS011;71040;47.526;18.986;2024-02-23T06:05:27;1.33;;;0.73;;
70313;SDS011;71040;47.526;18.986;2024-02-23T06:10:30;1.35;;;0.73;;
70313;SDS011;71040;47.526;18.986;2024-02-23T06:15:30;0.53;;;0.40;;
70313;SDS011;71040;47.526;18.986;2024-02-23T06:20:31;2.33;;;0.80;;
70313;SDS011;71040;47.526;18.986;2024-02-23T06:25:33;1.77;;;0.80;;
70313;SDS011;71040;47.526;18.986;2024-02-23T06:30:34;2.63;;;0.90;;
70313;SDS011;71040;47.526;18.986;2024-02-23T06:35:36;1.27;;;0.65;;
70313;SDS011;71040;47.526;18.986;2024-02-23T06:40:40;1.30;;;0.65;;
70313;SDS011;71040;47.526;18.986;2024-02-23T06:45:40;1.10;;;0.70;;
70313;SDS011;71040;47.526;18.986;2024-02-23T06:50:43;1.13;;;0.50;;
70313;SDS011;71040;47.526;18.986;2024-02-23T06:55:46;1.15;;;0.50;;
70313;SDS011;71040;47.526;18.986;2024-02-23T07:00:46;0.80;;;0.57;;
70313;SDS011;71040;47.526;18.986;2024-02-23T07:05:49;1.25;;;0.75;;
70313;SDS011;71040;47.526;18.986;2024-02-23T07:10:50;1.25;;;0.50;;
70313;SDS011;71040;47.526;18.986;2024-02-23T07:15:53;1.30;;;0.60;;
70313;SDS011;71040;47.526;18.986;2024-02-23T07:20:55;0.80;;;0.55;;
70313;SDS011;71040;47.526;18.986;2024-02-23T07:25:56;0.93;;;0.77;;
70313;SDS011;71040;47.526;18.986;2024-02-23T07:31:01;1.27;;;0.60;;
70313;SDS011;71040;47.526;18.986;2024-02-23T07:36:01;1.10;;;0.60;;
70313;SDS011;71040;47.526;18.986;2024-02-23T07:41:04;1.20;;;0.40;;
70313;SDS011;71040;47.526;18.986;2024-02-23T07:46:04;0.97;;;0.57;;
70313;SDS011;71040;47.526;18.986;2024-02-23T07:51:08;1.33;;;0.60;;
70313;SDS011;71040;47.526;18.986;2024-02-23T07:56:11;1.10;;;0.65;;
70313;SDS011;71040;47.526;18.986;2024-02-23T08:01:17;0.68;;;0.45;;
70313;SDS011;71040;47.526;18.986;2024-02-23T08:06:19;1.27;;;0.75;;
70313;SDS011;71040;47.526;18.986;2024-02-23T08:11:20;0.87;;;0.50;;
70313;SDS011;71040;47.526;18.986;2024-02-23T08:16:23;2.28;;;0.70;;
70313;SDS011;71040;47.526;18.986;2024-02-23T08:21:24;1.33;;;0.70;;
70313;SDS011;71040;47.526;18.986;2024-02-23T08:26:27;1.20;;;0.68;;
70313;SDS011;71040;47.526;18.986;2024-02-23T08:31:30;0.80;;;0.50;;
70313;SDS011;71040;47.526;18.986;2024-02-23T08:36:31;1.45;;;0.60;;
70313;SDS011;71040;47.526;18.986;2024-02-23T08:41:33;1.88;;;0.50;;
70313;SDS011;71040;47.526;18.986;2024-02-23T08:46:33;1.10;;;0.70;;
70313;SDS011;71040;47.526;18.986;2024-02-23T08:51:39;1.05;;;0.70;;
70313;SDS011;71040;47.526;18.986;2024-02-23T08:56:41;1.63;;;0.68;;
70313;SDS011;71040;47.526;18.986;2024-02-23T09:01:42;1.42;;;0.70;;
70313;SDS011;71040;47.526;18.986;2024-02-23T09:06:47;1.38;;;0.60;;
70313;SDS011;71040;47.526;18.986;2024-02-23T09:11:49;1.15;;;0.70;;
70313;SDS011;71040;47.526;18.986;2024-02-23T09:16:49;1.40;;;0.60;;
70313;SDS011;71040;47.526;18.986;2024-02-23T09:21:52;0.82;;;0.43;;
70313;SDS011;71040;47.526;18.986;2024-02-23T09:26:53;1.20;;;0.57;;
70313;SDS011;71040;47.526;18.986;2024-02-23T09:31:56;1.13;;;0.50;;
70313;SDS011;71040;47.526;18.986;2024-02-23T09:36:58;1.15;;;0.60;;
70313;SDS011;71040;47.526;18.986;2024-02-23T09:41:59;1.77;;;0.50;;
70313;SDS011;71040;47.526;18.986;2024-02-23T09:47:01;0.65;;;0.30;;
70313;SDS011;71040;47.526;18.986;2024-02-23T09:52:08;0.70;;;0.52;;
70313;SDS011;71040;47.526;18.986;2024-02-23T09:57:11;0.70;;;0.45;;
70313;SDS011;71040;47.526;18.986;2024-02-23T10:02:15;2.25;;;0.40;;
70313;SDS011;71040;47.526;18.986;2024-02-23T10:07:20;0.70;;;0.40;;
70313;SDS011;71040;47.526;18.986;2024-02-23T10:12:21;1.33;;;0.57;;
70313;SDS011;71040;47.526;18.986;2024-02-23T10:17:21;0.90;;;0.40;;
70313;SDS011;71040;47.526;18.986;2024-02-23T10:22:24;0.63;;;0.40;;
70313;SDS011;71040;47.526;18.986;2024-02-23T10:27:30;1.20;;;0.70;;
70313;SDS011;71040;47.526;18.986;2024-02-23T10:32:33;1.02;;;0.50;;
70313;SDS011;71040;47.526;18.986;2024-02-23T10:37:35;0.90;;;0.60;;
70313;SDS011;71040;47.526;18.986;2024-02-23T10:42:38;0.98;;;0.55;;
70313;SDS011;71040;47.526;18.986;2024-02-23T10:47:40;0.80;;;0.40;;
70313;SDS011;71040;47.526;18.986;2024-02-23T10:52:42;0.65;;;0.47;;
70313;SDS011;71040;47.526;18.986;2024-02-23T10:57:45;0.90;;;0.65;;
70313;SDS011;71040;47.526;18.986;2024-02-23T11:02:56;0.70;;;0.30;;
70313;SDS011;71040;47.526;18.986;2024-02-23T11:08:05;1.03;;;0.40;;
70313;SDS011;71040;47.526;18.986;2024-02-23T11:13:08;0.90;;;0.32;;
70313;SDS011;71040;47.526;18.986;2024-02-23T11:18:22;0.80;;;0.55;;
70313;SDS011;71040;47.526;18.986;2024-02-23T11:23:23;0.95;;;0.40;;
70313;SDS011;71040;47.526;18.986;2024-02-23T11:28:25;0.70;;;0.30;;
70313;SDS011;71040;47.526;18.986;2024-02-23T11:33:26;0.65;;;0.30;;
70313;SDS011;71040;47.526;18.986;2024-02-23T11:38:28;0.93;;;0.40;;
70313;SDS011;71040;47.526;18.986;2024-02-23T11:43:29;0.80;;;0.30;;
70313;SDS011;71040;47.526;18.986;2024-02-23T11:48:30;0.70;;;0.30;;
70313;SDS011;71040;47.526;18.986;2024-02-23T11:53:30;0.40;;;0.30;;
70313;SDS011;71040;47.526;18.986;2024-02-23T11:58:33;0.57;;;0.28;;
70313;SDS011;71040;47.526;18.986;2024-02-23T12:03:44;0.90;;;0.43;;
70313;SDS011;71040;47.526;18.986;2024-02-23T12:08:48;1.27;;;0.70;;
70313;SDS011;71040;47.526;18.986;2024-02-23T12:13:49;0.93;;;0.57;;
70313;SDS011;71040;47.526;18.986;2024-02-23T12:18:56;1.40;;;0.77;;
70313;SDS011;71040;47.526;18.986;2024-02-23T12:24:03;1.45;;;0.90;;
70313;SDS011;71040;47.526;18.986;2024-02-23T12:29:06;1.10;;;0.50;;
70313;SDS011;71040;47.526;18.986;2024-02-23T12:34:11;1.33;;;0.70;;
70313;SDS011;71040;47.526;18.986;2024-02-23T12:39:12;1.70;;;0.85;;
70313;SDS011;71040;47.526;18.986;2024-02-23T12:44:12;1.23;;;0.70;;
70313;SDS011;71040;47.526;18.986;2024-02-23T12:49:13;0.87;;;0.53;;
70313;SDS011;71040;47.526;18.986;2024-02-23T12:54:15;1.50;;;0.40;;
70313;SDS011;71040;47.526;18.986;2024-02-23T12:59:16;1.27;;;0.52;;
70313;SDS011;71040;47.526;18.986;2024-02-23T13:04:16;1.40;;;0.80;;
70313;SDS011;71040;47.526;18.986;2024-02-23T13:09:17;2.40;;;0.87;;
70313;SDS011;71040;47.526;18.986;2024-02-23T13:14:17;1.70;;;0.73;;
70313;SDS011;71040;47.526;18.986;2024-02-23T13:19:17;1.70;;;0.50;;
70313;SDS011;71040;47.526;18.986;2024-02-23T13:24:18;1.67;;;0.93;;
70313;SDS011;71040;47.526;18.986;2024-02-23T13:29:20;1.60;;;0.70;;
70313;SDS011;71040;47.526;18.986;2024-02-23T13:34:21;0.83;;;0.50;;
70313;SDS011;71040;47.526;18.986;2024-02-23T13:39:24;1.00;;;0.73;;
70313;SDS011;71040;47.526;18.986;2024-02-23T13:44:24;2.28;;;0.68;;
70313;SDS011;71040;47.526;18.986;2024-02-23T13:49:24;1.40;;;0.60;;
70313;SDS011;71040;47.526;18.986;2024-02-23T13:54:27;2.65;;;0.70;;
70313;SDS011;71040;47.526;18.986;2024-02-23T13:59:31;2.00;;;1.08;;
70313;SDS011;71040;47.526;18.986;2024-02-23T14:04:31;1.10;;;0.57;;
70313;SDS011;71040;47.526;18.986;2024-02-23T14:09:37;1.58;;;0.85;;
70313;SDS011;71040;47.526;18.986;2024-02-23T14:14:39;1.70;;;0.80;;
70313;SDS011;71040;47.526;18.986;2024-02-23T14:19:42;2.10;;;1.00;;
70313;SDS011;71040;47.526;18.986;2024-02-23T14:24:43;2.50;;;0.65;;
70313;SDS011;71040;47.526;18.986;2024-02-23T14:29:49;1.50;;;0.63;;
70313;SDS011;71040;47.526;18.986;2024-02-23T14:34:56;1.80;;;0.90;;
70313;SDS011;71040;47.526;18.986;2024-02-23T14:39:57;1.98;;;1.02;;
70313;SDS011;71040;47.526;18.986;2024-02-23T14:44:57;1.60;;;0.80;;
70313;SDS011;71040;47.526;18.986;2024-02-23T14:50:00;2.03;;;0.90;;
70313;SDS011;71040;47.526;18.986;2024-02-23T14:55:01;1.67;;;1.17;;
70313;SDS011;71040;47.526;18.986;2024-02-23T15:00:04;1.98;;;1.00;;
70313;SDS011;71040;47.526;18.986;2024-02-23T15:05:05;1.45;;;1.00;;
70313;SDS011;71040;47.526;18.986;2024-02-23T15:10:06;2.72;;;1.02;;
70313;SDS011;71040;47.526;18.986;2024-02-23T15:15:08;1.95;;;1.13;;
70313;SDS011;71040;47.526;18.986;2024-02-23T15:20:14;2.28;;;1.15;;
70313;SDS011;71040;47.526;18.986;2024-02-23T15:25:14;1.70;;;1.02;;
70313;SDS011;71040;47.526;18.986;2024-02-23T15:30:17;1.77;;;0.80;;
70313;SDS011;71040;47.526;18.986;2024-02-23T15:35:20;1.70;;;0.88;;
70313;SDS011;71040;47.526;18.986;2024-02-23T15:40:21;2.25;;;1.42;;
70313;SDS011;71040;47.526;18.986;2024-02-23T15:45:26;2.25;;;1.02;;
70313;SDS011;71040;47.526;18.986;2024-02-23T15:50:27;2.03;;;0.90;;
70313;SDS011;71040;47.526;18.986;2024-02-23T15:55:28;2.38;;;1.27;;
70313;SDS011;71040;47.526;18.986;2024-02-23T16:00:30;2.42;;;1.13;;
70313;SDS011;71040;47.526;18.986;2024-02-23T16:05:33;1.63;;;1.25;;
70313;SDS011;71040;47.526;18.986;2024-02-23T16:10:33;1.90;;;1.50;;
70313;SDS011;71040;47.526;18.986;2024-02-23T16:15:35;2.33;;;1.52;;
70313;SDS011;71040;47.526;18.986;2024-02-23T16:20:40;1.58;;;1.10;;
70313;SDS011;71040;47.526;18.986;2024-02-23T16:25:41;1.73;;;1.17;;
70313;SDS011;71040;47.526;18.986;2024-02-23T16:30:43;2.22;;;1.08;;
70313;SDS011;71040;47.526;18.986;2024-02-23T16:35:44;1.70;;;0.95;;
70313;SDS011;71040;47.526;18.986;2024-02-23T16:40:45;1.97;;;1.10;;
70313;SDS011;71040;47.526;18.986;2024-02-23T16:45:47;2.83;;;1.37;;
70313;SDS011;71040;47.526;18.986;2024-02-23T16:50:55;1.75;;;1.05;;
70313;SDS011;71040;47.526;18.986;2024-02-23T16:56:00;2.67;;;1.05;;
70313;SDS011;71040;47.526;18.986;2024-02-23T17:01:01;2.92;;;1.20;;
70313;SDS011;71040;47.526;18.986;2024-02-23T17:06:07;1.88;;;1.08;;
70313;SDS011;71040;47.526;18.986;2024-02-23T17:11:08;1.50;;;0.77;;
70313;SDS011;71040;47.526;18.986;2024-02-23T17:16:08;2.35;;;1.27;;
70313;SDS011;71040;47.526;18.986;2024-02-23T17:21:11;2.30;;;1.40;;
70313;SDS011;71040;47.526;18.986;2024-02-23T17:26:16;2.47;;;1.60;;
70313;SDS011;71040;47.526;18.986;2024-02-23T17:31:21;2.20;;;1.48;;
70313;SDS011;71040;47.526;18.986;2024-02-23T17:36:24;2.30;;;1.48;;
70313;SDS011;71040;47.526;18.986;2024-02-23T17:41:24;2.60;;;1.63;;
70313;SDS011;71040;47.526;18.986;2024-02-23T17:46:27;2.22;;;1.27;;
70313;SDS011;71040;47.526;18.986;2024-02-23T17:51:28;1.67;;;1.10;;
70313;SDS011;71040;47.526;18.986;2024-02-23T17:56:30;2.28;;;1.50;;
70313;SDS011;71040;47.526;18.986;2024-02-23T18:01:34;2.63;;;1.40;;
70313;SDS011;71040;47.526;18.986;2024-02-23T18:06:37;2.23;;;1.43;;
70313;SDS011;71040;47.526;18.986;2024-02-23T18:11:37;2.70;;;1.50;;
70313;SDS011;71040;47.526;18.986;2024-02-23T18:16:40;2.08;;;1.50;;
70313;SDS011;71040;47.526;18.986;2024-02-23T18:21:40;2.30;;;1.70;;
70313;SDS011;71040;47.526;18.986;2024-02-23T18:26:41;3.00;;;1.77;;
70313;SDS011;71040;47.526;18.986;2024-02-23T18:31:41;2.83;;;1.67;;
70313;SDS011;71040;47.526;18.986;2024-02-23T18:36:44;2.53;;;1.70;;
70313;SDS011;71040;47.526;18.986;2024-02-23T18:41:47;2.50;;;1.75;;
70313;SDS011;71040;47.526;18.986;2024-02-23T18:46:47;2.42;;;1.60;;
70313;SDS011;71040;47.526;18.986;2024-02-23T18:51:50;2.97;;;1.77;;
70313;SDS011;71040;47.526;18.986;2024-02-23T18:56:51;2.42;;;1.30;;
70313;SDS011;71040;47.526;18.986;2024-02-23T19:01:53;2.47;;;2.20;;
70313;SDS011;71040;47.526;18.986;2024-02-23T19:06:57;2.70;;;1.70;;
70313;SDS011;71040;47.526;18.986;2024-02-23T19:11:58;2.67;;;1.88;;
70313;SDS011;71040;47.526;18.986;2024-02-23T19:17:03;2.53;;;1.90;;
70313;SDS011;71040;47.526;18.986;2024-02-23T19:22:04;2.83;;;1.90;;
70313;SDS011;71040;47.526;18.986;2024-02-23T19:27:04;3.67;;;1.83;;
70313;SDS011;71040;47.526;18.986;2024-02-23T19:32:05;3.43;;;2.00;;
70313;SDS011;71040;47.526;18.986;2024-02-23T19:37:07;2.42;;;1.80;;
70313;SDS011;71040;47.526;18.986;2024-02-23T19:42:10;2.40;;;1.50;;
70313;SDS011;71040;47.526;18.986;2024-02-23T19:47:11;2.95;;;2.13;;
70313;SDS011;71040;47.526;18.986;2024-02-23T19:52:15;3.28;;;2.00;;
70313;SDS011;71040;47.526;18.986;2024-02-23T19:57:15;2.90;;;1.80;;
70313;SDS011;71040;47.526;18.986;2024-02-23T20:02:16;2.30;;;1.83;;
70313;SDS011;71040;47.526;18.986;2024-02-23T20:07:17;3.88;;;2.25;;
70313;SDS011;71040;47.526;18.986;2024-02-23T20:12:19;3.72;;;2.60;;
70313;SDS011;71040;47.526;18.986;2024-02-23T20:17:24;3.45;;;2.35;;
70313;SDS011;71040;47.526;18.986;2024-02-23T20:22:29;3.45;;;2.47;;
70313;SDS011;71040;47.526;18.986;2024-02-23T20:27:31;2.42;;;2.13;;
70313;SDS011;71040;47.526;18.986;2024-02-23T20:32:32;2.53;;;1.90;;
70313;SDS011;71040;47.526;18.986;2024-02-23T20:37:35;4.00;;;2.40;;
70313;SDS011;71040;47.526;18.986;2024-02-23T20:42:40;2.60;;;2.13;;
70313;SDS011;71040;47.526;18.986;2024-02-23T20:47:41;2.40;;;1.83;;
70313;SDS011;71040;47.526;18.986;2024-02-23T20:52:43;3.40;;;2.50;;
70313;SDS011;71040;47.526;18.986;2024-02-23T20:57:44;3.93;;;2.37;;
70313;SDS011;71040;47.526;18.986;2024-02-23T21:02:44;3.13;;;2.80;;
70313;SDS011;71040;47.526;18.986;2024-02-23T21:07:44;3.53;;;3.00;;
70313;SDS011;71040;47.526;18.986;2024-02-23T21:12:45;3.33;;;2.53;;
70313;SDS011;71040;47.526;18.986;2024-02-23T21:17:46;3.77;;;2.70;;
70313;SDS011;71040;47.526;18.986;2024-02-23T21:22:48;3.17;;;2.47;;
70313;SDS011;71040;47.526;18.986;2024-02-23T21:27:48;4.00;;;2.92;;
70313;SDS011;71040;47.526;18.986;2024-02-23T21:32:49;4.03;;;2.63;;
70313;SDS011;71040;47.526;18.986;2024-02-23T21:37:55;4.45;;;3.40;;
70313;SDS011;71040;47.526;18.986;2024-02-23T21:42:56;3.92;;;2.42;;
70313;SDS011;71040;47.526;18.986;2024-02-23T21:47:59;4.47;;;2.87;;
70313;SDS011;71040;47.526;18.986;2024-02-23T21:52:59;4.60;;;2.75;;
70313;SDS011;71040;47.526;18.986;2024-02-23T21:58:00;3.70;;;2.83;;
70313;SDS011;71040;47.526;18.986;2024-02-23T22:03:00;4.33;;;3.50;;
70313;SDS011;71040;47.526;18.986;2024-02-23T22:08:02;4.80;;;3.13;;
70313;SDS011;71040;47.526;18.986;2024-02-23T22:13:03;3.55;;;3.00;;
70313;SDS011;71040;47.526;18.986;2024-02-23T22:18:04;4.05;;;2.83;;
70313;SDS011;71040;47.526;18.986;2024-02-23T22:23:07;4.20;;;2.80;;
70313;SDS011;71040;47.526;18.986;2024-02-23T22:28:10;4.05;;;3.10;;
70313;SDS011;71040;47.526;18.986;2024-02-23T22:33:10;3.87;;;2.80;;
70313;SDS011;71040;47.526;18.986;2024-02-23T22:38:11;4.73;;;3.20;;
70313;SDS011;71040;47.526;18.986;2024-02-23T22:43:14;4.60;;;2.77;;
70313;SDS011;71040;47.526;18.986;2024-02-23T22:48:17;5.05;;;3.40;;
70313;SDS011;71040;47.526;18.986;2024-02-23T22:53:17;5.43;;;3.10;;
70313;SDS011;71040;47.526;18.986;2024-02-23T22:58:20;4.60;;;3.10;;
70313;SDS011;71040;47.526;18.986;2024-02-23T23:03:23;4.70;;;3.13;;
70313;SDS011;71040;47.526;18.986;2024-02-23T23:08:23;5.13;;;3.77;;
70313;SDS011;71040;47.526;18.986;2024-02-23T23:13:26;4.80;;;3.40;;
70313;SDS011;71040;47.526;18.986;2024-02-23T23:18:27;3.85;;;2.90;;
70313;SDS011;71040;47.526;18.986;2024-02-23T23:23:27;4.40;;;3.40;;
70313;SDS011;71040;47.526;18.986;2024-02-23T23:28:32;6.60;;;3.25;;
70313;SDS011;71040;47.526;18.986;2024-02-23T23:33:32;4.65;;;3.40;;
70313;SDS011;71040;47.526;18.986;2024-02-23T23:38:32;4.10;;;3.27;;
70313;SDS011;71040;47.526;18.986;2024-02-23T23:43:38;4.72;;;3.08;;
70313;SDS011;71040;47.526;18.986;2024-02-23T23:48:38;3.97;;;2.97;;
70313;SDS011;71040;47.526;18.986;2024-02-23T23:53:39;3.92;;;2.92;;
70313;SDS011;71040;47.526;18.986;2024-02-23T23:58:39;4.50;;;3.35;;
